createdAt,value
2019-03-01T00:02:28.049Z,48.70
2019-03-01T00:05:00.245Z,48.60
2019-03-01T00:07:46.290Z,48.60
2019-03-01T00:10:24.428Z,48.50
2019-03-01T00:13:10.325Z,48.40
2019-03-01T00:15:48.244Z,48.50
2019-03-01T00:18:35.557Z,48.40
2019-03-01T00:21:22.818Z,48.40
2019-03-01T00:23:51.971Z,48.40
2019-03-01T00:26:30.158Z,48.30
2019-03-01T00:29:15.776Z,48.30
2019-03-01T00:31:44.942Z,48.40
2019-03-01T00:34:14.106Z,48.40
2019-03-01T00:36:43.344Z,48.40
2019-03-01T00:39:21.497Z,48.30
2019-03-01T00:41:56.711Z,48.20
2019-03-01T00:44:41.231Z,48.20
2019-03-01T00:47:08.763Z,48.10
2019-03-01T00:49:36.465Z,48.00
2019-03-01T00:52:04.537Z,48.10
2019-03-01T00:54:32.059Z,48.00
2019-03-01T00:56:59.596Z,48.00
2019-03-01T00:59:27.130Z,48.10
2019-03-01T01:01:54.742Z,48.00
2019-03-01T01:04:22.277Z,48.00
2019-03-01T01:06:49.854Z,48.10
2019-03-01T01:09:17.380Z,48.10
2019-03-01T01:11:45.014Z,48.20
2019-03-01T01:14:12.534Z,48.20
2019-03-01T01:16:40.072Z,48.10
2019-03-01T01:19:07.605Z,48.10
2019-03-01T01:21:35.145Z,48.00
2019-03-01T01:24:02.672Z,48.00
2019-03-01T01:26:30.196Z,47.90
2019-03-01T01:28:57.803Z,47.80
2019-03-01T01:31:25.332Z,47.80
2019-03-01T01:33:52.870Z,47.80
2019-03-01T01:36:20.397Z,47.70
2019-03-01T01:38:47.934Z,47.70
2019-03-01T01:41:15.451Z,47.70
2019-03-01T01:43:43.070Z,47.70
2019-03-01T01:46:10.605Z,47.70
2019-03-01T01:48:38.131Z,47.80
2019-03-01T01:51:05.662Z,47.80
2019-03-01T01:53:33.200Z,47.80
2019-03-01T01:56:00.746Z,47.70
2019-03-01T01:58:28.352Z,47.70
2019-03-01T02:00:55.884Z,47.70
2019-03-01T02:03:23.424Z,47.70
2019-03-01T02:05:50.955Z,47.70
2019-03-01T02:08:18.489Z,47.60
2019-03-01T02:10:46.372Z,47.60
2019-03-01T02:13:13.905Z,47.60
2019-03-01T02:15:41.435Z,47.50
2019-03-01T02:18:08.978Z,47.50
2019-03-01T02:20:36.511Z,47.50
2019-03-01T02:23:04.065Z,47.60
2019-03-01T02:25:31.598Z,47.70
2019-03-01T02:27:59.116Z,47.80
2019-03-01T02:30:28.295Z,48.00
2019-03-01T02:32:55.900Z,48.00
2019-03-01T02:35:23.444Z,48.10
2019-03-01T02:37:50.982Z,48.20
2019-03-01T02:40:18.515Z,48.10
2019-03-01T02:42:46.038Z,48.00
2019-03-01T02:45:15.198Z,48.00
2019-03-01T02:47:42.721Z,48.00
2019-03-01T02:50:11.331Z,47.80
2019-03-01T02:52:38.936Z,47.70
2019-03-01T02:55:08.097Z,47.70
2019-03-01T02:57:35.701Z,47.60
2019-03-01T03:00:04.281Z,47.50
2019-03-01T03:02:31.812Z,47.50
2019-03-01T03:04:59.338Z,47.50
2019-03-01T03:07:28.504Z,47.50
2019-03-01T03:09:56.047Z,47.70
2019-03-01T03:12:23.631Z,48.40
2019-03-01T03:14:51.533Z,47.70
2019-03-01T03:17:19.058Z,47.80
2019-03-01T03:19:46.586Z,47.70
2019-03-01T03:22:14.108Z,47.80
2019-03-01T03:24:41.655Z,47.60
2019-03-01T03:27:09.549Z,47.60
2019-03-01T03:29:37.161Z,47.50
2019-03-01T03:32:04.694Z,47.50
2019-03-01T03:34:32.292Z,47.50
2019-03-01T03:36:59.826Z,47.40
2019-03-01T03:39:27.355Z,47.40
2019-03-01T03:41:54.967Z,47.30
2019-03-01T03:44:22.499Z,47.30
2019-03-01T03:46:50.016Z,47.40
2019-03-01T03:49:17.549Z,47.40
2019-03-01T03:51:45.080Z,47.40
2019-03-01T03:54:12.602Z,47.50
2019-03-01T03:56:40.134Z,47.30
2019-03-01T03:59:07.743Z,47.20
2019-03-01T04:01:35.282Z,47.20
2019-03-01T04:04:02.818Z,47.10
2019-03-01T04:06:30.355Z,47.00
2019-03-01T04:08:57.888Z,46.90
2019-03-01T04:11:25.425Z,46.90
2019-03-01T04:13:52.999Z,46.80
2019-03-01T04:16:20.530Z,46.80
2019-03-01T04:18:48.059Z,46.80
2019-03-01T04:21:15.667Z,46.90
2019-03-01T04:23:43.199Z,47.00
2019-03-01T04:26:10.824Z,47.10
2019-03-01T04:28:38.429Z,47.20
2019-03-01T04:31:06.075Z,47.20
2019-03-01T04:33:33.620Z,47.20
2019-03-01T04:36:01.219Z,47.80
2019-03-01T04:38:28.751Z,47.10
2019-03-01T04:40:56.272Z,47.00
2019-03-01T04:43:23.813Z,47.00
2019-03-01T04:45:51.771Z,46.90
2019-03-01T04:48:19.300Z,46.80
2019-03-01T04:50:46.835Z,46.90
2019-03-01T04:53:14.368Z,46.80
2019-03-01T04:55:41.901Z,46.70
2019-03-01T04:58:09.443Z,46.60
2019-03-01T05:00:36.972Z,46.80
2019-03-01T05:03:04.773Z,47.00
2019-03-01T05:05:32.311Z,47.10
2019-03-01T05:07:59.993Z,47.20
2019-03-01T05:10:27.527Z,47.20
2019-03-01T05:12:55.058Z,47.40
2019-03-01T05:15:23.365Z,47.40
2019-03-01T05:17:50.902Z,47.30
2019-03-01T05:20:18.429Z,47.20
2019-03-01T05:22:46.049Z,47.20
2019-03-01T05:25:16.342Z,47.30
2019-03-01T05:27:43.890Z,47.10
2019-03-01T05:31:25.502Z,47.00
2019-03-01T05:33:55.271Z,46.80
2019-03-01T05:36:22.458Z,46.60
2019-03-01T05:38:50.006Z,46.70
2019-03-01T05:41:17.535Z,46.60
2019-03-01T05:43:45.071Z,46.60
2019-03-01T05:46:12.604Z,46.70
2019-03-01T05:48:40.140Z,47.20
2019-03-01T05:51:07.685Z,46.60
2019-03-01T05:53:35.301Z,46.60
2019-03-01T05:56:02.906Z,46.60
2019-03-01T05:58:31.319Z,46.60
2019-03-01T06:01:00.623Z,46.60
2019-03-01T06:03:47.873Z,46.60
2019-03-01T06:06:33.820Z,46.60
2019-03-01T06:09:09.013Z,46.60
2019-03-01T06:11:38.250Z,46.70
2019-03-01T06:14:07.603Z,46.60
2019-03-01T06:16:40.254Z,46.60
2019-03-01T06:19:09.559Z,46.60
2019-03-01T06:21:48.035Z,46.60
2019-03-01T06:24:23.150Z,46.60
2019-03-01T06:26:58.291Z,46.60
2019-03-01T06:29:30.501Z,46.70
2019-03-01T06:32:08.630Z,46.70
2019-03-01T06:34:43.522Z,46.60
2019-03-01T06:37:15.531Z,46.60
2019-03-01T06:39:52.648Z,46.60
2019-03-01T06:42:26.556Z,46.60
2019-03-01T06:45:05.018Z,46.50
2019-03-01T06:47:42.615Z,46.50
2019-03-01T06:50:13.117Z,46.40
2019-03-01T06:52:40.805Z,46.40
2019-03-01T06:55:13.049Z,46.40
2019-03-01T06:57:40.650Z,46.30
2019-03-01T07:00:09.842Z,46.40
2019-03-01T07:02:39.012Z,46.40
2019-03-01T07:05:06.530Z,46.90
2019-03-01T07:07:34.067Z,46.30
2019-03-01T07:10:01.605Z,46.20
2019-03-01T07:12:29.222Z,46.20
2019-03-01T07:14:56.815Z,46.10
2019-03-01T07:17:24.357Z,46.00
2019-03-01T07:19:51.876Z,45.90
2019-03-01T07:22:19.408Z,46.00
2019-03-01T07:24:46.938Z,45.90
2019-03-01T07:27:14.464Z,45.80
2019-03-01T07:29:41.989Z,45.90
2019-03-01T07:32:09.559Z,45.80
2019-03-01T07:34:37.126Z,45.90
2019-03-01T07:37:04.710Z,45.90
2019-03-01T07:39:32.300Z,46.60
2019-03-01T07:41:59.830Z,45.90
2019-03-01T07:44:27.377Z,46.00
2019-03-01T07:46:54.919Z,46.00
2019-03-01T07:49:22.454Z,46.00
2019-03-01T07:51:49.983Z,45.90
2019-03-01T07:54:18.091Z,46.00
2019-03-01T07:56:45.729Z,46.80
2019-03-01T07:59:13.264Z,46.10
2019-03-01T08:01:43.800Z,46.10
2019-03-01T08:04:11.327Z,46.00
2019-03-01T08:06:38.891Z,45.40
2019-03-01T08:09:08.468Z,45.90
2019-03-01T08:11:36.086Z,45.90
2019-03-01T08:14:03.613Z,46.00
2019-03-01T08:16:31.145Z,46.00
2019-03-01T08:18:58.662Z,46.00
2019-03-01T08:21:26.202Z,46.00
2019-03-01T08:23:53.829Z,46.00
2019-03-01T08:26:21.348Z,46.00
2019-03-01T08:28:48.885Z,46.00
2019-03-01T08:31:17.530Z,45.80
2019-03-01T08:33:45.684Z,45.90
2019-03-01T08:36:13.221Z,45.90
2019-03-01T08:38:40.753Z,45.90
2019-03-01T08:41:08.287Z,45.80
2019-03-01T08:43:36.032Z,45.80
2019-03-01T08:46:05.464Z,45.80
2019-03-01T08:48:33.679Z,45.90
2019-03-01T08:51:02.194Z,45.90
2019-03-01T08:53:29.821Z,45.90
2019-03-01T08:55:57.412Z,46.00
2019-03-01T08:58:24.939Z,46.00
2019-03-01T09:00:59.310Z,46.00
2019-03-01T09:03:23.593Z,46.00
2019-03-01T09:05:51.127Z,46.00
2019-03-01T09:08:19.428Z,46.10
2019-03-01T09:10:47.161Z,46.20
2019-03-01T09:13:14.663Z,46.00
2019-03-01T09:15:42.205Z,46.70
2019-03-01T09:18:11.485Z,46.00
2019-03-01T09:20:39.007Z,46.00
2019-03-01T09:23:20.690Z,46.00
2019-03-01T09:25:35.822Z,46.00
2019-03-01T09:28:03.360Z,46.00
2019-03-01T09:30:30.974Z,46.10
2019-03-01T09:32:58.504Z,46.00
2019-03-01T09:35:33.364Z,46.00
2019-03-01T09:38:00.898Z,46.00
2019-03-01T09:40:29.583Z,45.90
2019-03-01T09:42:57.404Z,45.90
2019-03-01T09:45:24.945Z,45.90
2019-03-01T09:47:52.585Z,45.80
2019-03-01T09:50:20.117Z,45.80
2019-03-01T09:52:47.666Z,45.70
2019-03-01T09:55:15.620Z,45.80
2019-03-01T09:57:43.216Z,45.60
2019-03-01T10:00:21.503Z,45.70
2019-03-01T10:02:49.025Z,45.70
2019-03-01T10:05:16.562Z,45.70
2019-03-01T10:07:44.088Z,45.70
2019-03-01T10:10:12.600Z,45.70
2019-03-01T10:12:40.130Z,45.90
2019-03-01T10:15:09.576Z,45.90
2019-03-01T10:17:37.114Z,45.90
2019-03-01T10:20:09.752Z,46.00
2019-03-01T10:22:40.491Z,46.00
2019-03-01T10:25:09.552Z,46.00
2019-03-01T10:27:37.088Z,46.10
2019-03-01T10:30:06.352Z,46.00
2019-03-01T10:32:33.874Z,46.00
2019-03-01T10:35:01.459Z,45.90
2019-03-01T10:37:28.982Z,45.90
2019-03-01T10:39:56.515Z,45.80
2019-03-01T10:42:24.040Z,45.70
2019-03-01T10:44:51.594Z,45.90
2019-03-01T10:47:19.126Z,46.00
2019-03-01T10:49:46.657Z,45.90
2019-03-01T10:52:14.191Z,46.00
2019-03-01T10:54:41.720Z,46.00
2019-03-01T10:57:09.316Z,46.00
2019-03-01T10:59:36.918Z,46.20
2019-03-01T11:02:04.796Z,46.10
2019-03-01T11:04:32.319Z,46.00
2019-03-01T11:06:59.858Z,46.00
2019-03-01T11:09:27.386Z,46.20
2019-03-01T11:11:54.929Z,46.10
2019-03-01T11:14:22.532Z,45.90
2019-03-01T11:16:50.082Z,46.10
2019-03-01T11:19:17.686Z,46.20
2019-03-01T11:21:45.209Z,46.10
2019-03-01T11:24:12.735Z,46.10
2019-03-01T11:26:40.258Z,46.20
2019-03-01T11:29:07.795Z,46.20
2019-03-01T11:31:35.333Z,46.30
2019-03-01T11:34:03.383Z,46.10
2019-03-01T11:36:30.919Z,46.00
2019-03-01T11:38:58.475Z,46.00
2019-03-01T11:41:26.035Z,45.90
2019-03-01T11:43:53.566Z,46.00
2019-03-01T11:46:21.112Z,45.90
2019-03-01T11:48:48.644Z,45.80
2019-03-01T11:51:16.175Z,45.80
2019-03-01T11:53:43.718Z,45.90
2019-03-01T11:56:11.306Z,46.00
2019-03-01T11:58:38.840Z,46.10
2019-03-01T12:01:06.367Z,46.00
2019-03-01T12:03:33.981Z,46.70
2019-03-01T12:06:01.879Z,46.00
2019-03-01T12:08:29.404Z,46.10
2019-03-01T12:10:56.925Z,46.00
2019-03-01T12:13:24.473Z,46.00
2019-03-01T12:15:52.070Z,45.90
2019-03-01T12:18:19.601Z,45.90
2019-03-01T12:20:47.210Z,46.00
2019-03-01T12:23:14.748Z,45.80
2019-03-01T12:25:42.278Z,45.80
2019-03-01T12:28:09.824Z,45.80
2019-03-01T12:30:37.424Z,45.80
2019-03-01T12:33:05.034Z,45.90
2019-03-01T12:35:32.575Z,45.90
2019-03-01T12:38:00.128Z,45.90
2019-03-01T12:40:28.431Z,46.10
2019-03-01T12:42:55.954Z,46.20
2019-03-01T12:45:23.578Z,46.20
2019-03-01T12:47:51.103Z,46.30
2019-03-01T12:50:18.628Z,46.20
2019-03-01T12:52:46.175Z,46.20
2019-03-01T12:55:15.385Z,46.10
2019-03-01T12:57:42.915Z,46.20
2019-03-01T13:00:12.504Z,46.00
2019-03-01T13:02:40.020Z,46.00
2019-03-01T13:05:08.725Z,46.00
2019-03-01T13:07:36.255Z,46.00
2019-03-01T13:10:06.985Z,45.90
2019-03-01T13:12:34.613Z,45.80
2019-03-01T13:15:02.148Z,45.80
2019-03-01T13:17:29.670Z,45.90
2019-03-01T13:19:57.627Z,46.30
2019-03-01T13:22:27.995Z,46.00
2019-03-01T13:24:55.847Z,46.00
2019-03-01T13:27:23.466Z,46.00
2019-03-01T13:29:50.980Z,45.80
2019-03-01T13:32:19.994Z,45.80
2019-03-01T13:34:49.470Z,45.70
2019-03-01T13:37:20.180Z,45.70
2019-03-01T13:39:48.589Z,45.70
2019-03-01T13:42:15.515Z,45.60
2019-03-01T13:44:43.144Z,45.60
2019-03-01T13:47:10.670Z,45.50
2019-03-01T13:49:38.286Z,45.50
2019-03-01T13:52:05.889Z,45.50
2019-03-01T13:54:33.415Z,45.50
2019-03-01T13:57:00.937Z,45.60
2019-03-01T13:59:28.481Z,45.60
2019-03-01T14:01:56.103Z,45.70
2019-03-01T14:04:23.644Z,45.80
2019-03-01T14:06:51.485Z,45.60
2019-03-01T14:09:19.068Z,45.50
2019-03-01T14:11:46.602Z,45.50
2019-03-01T14:14:14.138Z,45.50
2019-03-01T14:16:41.772Z,45.60
2019-03-01T14:19:09.309Z,46.10
2019-03-01T14:21:36.931Z,45.50
2019-03-01T14:24:04.464Z,45.50
2019-03-01T14:26:32.073Z,45.50
2019-03-01T14:28:59.599Z,45.50
2019-03-01T14:31:27.132Z,45.50
2019-03-01T14:33:54.670Z,45.50
2019-03-01T14:36:22.216Z,45.50
2019-03-01T14:38:49.822Z,45.50
2019-03-01T14:41:17.427Z,45.50
2019-03-01T14:43:44.976Z,45.40
2019-03-01T14:46:12.505Z,45.40
2019-03-01T14:48:42.942Z,45.40
2019-03-01T14:51:10.645Z,45.40
2019-03-01T14:53:38.534Z,45.40
2019-03-01T14:56:10.541Z,45.90
2019-03-01T14:58:39.693Z,45.50
2019-03-01T15:01:08.846Z,45.50
2019-03-01T15:03:37.045Z,45.50
2019-03-01T15:06:05.039Z,45.80
2019-03-01T15:08:32.672Z,45.60
2019-03-01T15:11:04.427Z,45.70
2019-03-01T15:13:31.373Z,45.70
2019-03-01T15:16:04.708Z,45.70
2019-03-01T15:18:32.260Z,45.80
2019-03-01T15:21:02.474Z,46.00
2019-03-01T15:23:29.152Z,46.50
2019-03-01T15:25:56.711Z,46.00
2019-03-01T15:28:24.590Z,46.00
2019-03-01T15:30:52.114Z,45.90
2019-03-01T15:33:19.723Z,46.00
2019-03-01T15:35:47.243Z,46.10
2019-03-01T15:38:14.789Z,46.10
2019-03-01T15:40:42.318Z,46.10
2019-03-01T15:43:09.859Z,46.00
2019-03-01T15:45:39.871Z,46.10
2019-03-01T15:48:06.735Z,46.10
2019-03-01T15:50:34.256Z,46.50
2019-03-01T15:53:01.809Z,46.00
2019-03-01T15:55:29.728Z,46.00
2019-03-01T15:57:59.321Z,46.00
2019-03-01T16:00:29.417Z,46.20
2019-03-01T16:03:00.980Z,46.10
2019-03-01T16:05:34.141Z,46.10
2019-03-01T16:08:00.405Z,46.00
2019-03-01T16:10:27.950Z,46.00
2019-03-01T16:12:55.481Z,46.00
2019-03-01T16:15:23.347Z,46.00
2019-03-01T16:17:51.046Z,45.90
2019-03-01T16:20:19.594Z,45.90
2019-03-01T16:22:47.115Z,46.00
2019-03-01T16:25:17.238Z,46.10
2019-03-01T16:27:44.479Z,46.20
2019-03-01T16:30:18.619Z,46.30
2019-03-01T16:32:49.558Z,46.30
2019-03-01T16:35:17.499Z,46.20
2019-03-01T16:37:48.052Z,46.20
2019-03-01T16:40:15.834Z,46.20
2019-03-01T16:42:43.411Z,46.10
2019-03-01T16:45:12.126Z,46.10
2019-03-01T16:47:42.072Z,46.10
2019-03-01T16:50:10.640Z,46.10
2019-03-01T16:52:38.172Z,46.10
2019-03-01T16:55:10.244Z,45.80
2019-03-01T16:57:37.774Z,46.10
2019-03-01T17:00:14.718Z,46.20
2019-03-01T17:02:42.985Z,46.20
2019-03-01T17:05:11.057Z,46.20
2019-03-01T17:07:38.643Z,46.40
2019-03-01T17:10:08.170Z,47.00
2019-03-01T17:12:37.615Z,46.20
2019-03-01T17:15:15.828Z,46.20
2019-03-01T17:17:43.712Z,46.10
2019-03-01T17:20:11.481Z,46.10
2019-03-01T17:22:41.138Z,46.10
2019-03-01T17:25:09.593Z,46.10
2019-03-01T17:27:40.048Z,46.10
2019-03-01T17:30:11.094Z,46.10
2019-03-01T17:32:37.732Z,46.20
2019-03-01T17:35:06.763Z,46.30
2019-03-01T17:37:34.313Z,46.30
2019-03-01T17:40:01.919Z,46.40
2019-03-01T17:42:29.461Z,46.70
2019-03-01T17:44:57.059Z,46.70
2019-03-01T17:47:26.606Z,46.80
2019-03-01T17:49:54.246Z,46.70
2019-03-01T17:52:22.195Z,46.80
2019-03-01T17:54:49.792Z,46.70
2019-03-01T17:57:17.401Z,46.80
2019-03-01T17:59:48.350Z,46.70
2019-03-01T18:02:14.963Z,46.70
2019-03-01T18:04:43.406Z,46.70
2019-03-01T18:07:10.953Z,47.00
2019-03-01T18:09:38.478Z,46.70
2019-03-01T18:12:06.023Z,46.70
2019-03-01T18:14:33.777Z,46.70
2019-03-01T18:17:02.993Z,46.50
2019-03-01T18:19:30.555Z,46.40
2019-03-01T18:21:58.086Z,46.50
2019-03-01T18:24:25.739Z,46.50
2019-03-01T18:26:53.322Z,46.40
2019-03-01T18:29:20.861Z,46.40
2019-03-01T18:31:50.212Z,46.50
2019-03-01T18:34:17.661Z,46.40
2019-03-01T18:36:45.881Z,46.50
2019-03-01T18:39:13.558Z,46.40
2019-03-01T18:41:41.088Z,46.40
2019-03-01T18:44:08.650Z,46.40
2019-03-01T18:46:36.229Z,46.60
2019-03-01T18:49:03.765Z,46.70
2019-03-01T18:51:31.324Z,46.50
2019-03-01T18:54:00.610Z,46.60
2019-03-01T18:56:28.731Z,46.70
2019-03-01T18:58:57.275Z,46.70
2019-03-01T19:01:24.816Z,46.50
2019-03-01T19:03:52.354Z,46.40
2019-03-01T19:06:20.009Z,46.50
2019-03-01T19:08:47.569Z,46.60
2019-03-01T19:11:15.152Z,46.50
2019-03-01T19:13:42.716Z,46.40
2019-03-01T19:16:10.422Z,46.40
2019-03-01T19:18:38.131Z,46.40
2019-03-01T19:21:05.736Z,46.40
2019-03-01T19:23:33.748Z,46.40
2019-03-01T19:26:01.984Z,46.40
2019-03-01T19:28:29.704Z,46.30
2019-03-01T19:30:57.238Z,46.20
2019-03-01T19:33:24.803Z,46.20
2019-03-01T19:35:52.540Z,46.10
2019-03-01T19:38:21.727Z,46.10
2019-03-01T19:42:38.899Z,46.10
2019-03-01T19:45:10.831Z,46.20
2019-03-01T19:47:38.400Z,46.30
2019-03-01T19:50:07.578Z,46.40
2019-03-01T19:52:35.157Z,46.40
2019-03-01T19:55:02.759Z,46.40
2019-03-01T19:57:30.327Z,46.40
2019-03-01T19:59:57.868Z,46.30
2019-03-01T20:05:27.951Z,46.30
2019-03-01T20:07:54.656Z,46.20
2019-03-01T20:10:23.151Z,46.40
2019-03-01T20:12:50.701Z,46.50
2019-03-01T20:15:20.579Z,46.60
2019-03-01T20:17:48.311Z,46.80
2019-03-01T20:20:16.895Z,46.80
2019-03-01T20:22:44.430Z,46.80
2019-03-01T20:25:16.002Z,46.80
2019-03-01T20:27:42.277Z,46.80
2019-03-01T20:30:11.488Z,46.90
2019-03-01T20:32:39.125Z,47.10
2019-03-01T20:35:09.756Z,47.00
2019-03-01T20:37:37.508Z,47.00
2019-03-01T20:40:06.689Z,46.90
2019-03-01T20:42:34.278Z,46.80
2019-03-01T20:45:01.795Z,46.80
2019-03-01T20:47:29.363Z,46.80
2019-03-01T20:49:56.889Z,46.80
2019-03-01T20:52:24.411Z,46.80
2019-03-01T20:54:51.947Z,46.80
2019-03-01T20:57:19.484Z,46.80
2019-03-01T20:59:50.567Z,46.80
2019-03-01T21:02:16.583Z,46.90
2019-03-01T21:04:53.002Z,46.80
2019-03-01T21:07:15.727Z,46.80
2019-03-01T21:09:42.638Z,47.60
2019-03-01T21:12:11.886Z,46.80
2019-03-01T21:14:39.575Z,46.80
2019-03-01T21:17:07.179Z,46.70
2019-03-01T21:19:34.701Z,46.70
2019-03-01T21:22:04.769Z,46.50
2019-03-01T21:24:32.096Z,46.50
2019-03-01T21:26:59.734Z,47.10
2019-03-01T21:29:27.267Z,46.40
2019-03-01T21:31:54.796Z,46.40
2019-03-01T21:34:22.337Z,46.30
2019-03-01T21:36:49.876Z,46.30
2019-03-01T21:39:20.559Z,46.20
2019-03-01T21:41:46.738Z,46.20
2019-03-01T21:44:14.275Z,46.10
2019-03-01T21:46:43.261Z,46.30
2019-03-01T21:49:10.996Z,46.20
2019-03-01T21:51:38.593Z,46.20
2019-03-01T21:54:06.131Z,46.20
2019-03-01T21:56:33.831Z,46.20
2019-03-01T21:59:01.929Z,46.10
2019-03-01T22:01:29.463Z,46.10
2019-03-01T22:03:59.290Z,46.10
2019-03-01T22:06:26.246Z,46.10
2019-03-01T22:08:53.767Z,46.00
2019-03-01T22:11:21.303Z,46.00
2019-03-01T22:13:48.907Z,46.60
2019-03-01T22:16:16.433Z,45.90
2019-03-01T22:18:44.030Z,46.00
2019-03-01T22:21:11.939Z,45.90
2019-03-01T22:23:39.669Z,46.00
2019-03-01T22:26:09.663Z,46.00
2019-03-01T22:28:37.074Z,46.00
2019-03-01T22:31:04.760Z,46.00
2019-03-01T22:33:32.358Z,46.70
2019-03-01T22:35:59.880Z,46.00
2019-03-01T22:38:27.410Z,46.00
2019-03-01T22:40:54.928Z,46.00
2019-03-01T22:43:25.790Z,46.00
2019-03-01T22:45:51.718Z,46.00
2019-03-01T22:48:19.247Z,46.00
2019-03-01T22:50:46.793Z,46.00
2019-03-01T22:53:14.310Z,46.00
2019-03-01T22:55:41.836Z,46.00
2019-03-01T22:58:09.378Z,46.00
2019-03-01T23:00:57.947Z,46.10
2019-03-01T23:03:25.164Z,46.10
2019-03-01T23:05:52.746Z,46.10
2019-03-01T23:08:20.281Z,46.10
2019-03-01T23:10:47.819Z,46.80
2019-03-01T23:13:19.660Z,46.20
2019-03-01T23:15:44.697Z,46.20
2019-03-01T23:18:12.358Z,46.20
2019-03-01T23:20:39.902Z,46.20
2019-03-01T23:23:07.427Z,46.20
2019-03-01T23:25:34.966Z,46.10
2019-03-01T23:28:04.014Z,46.20
2019-03-01T23:30:31.745Z,46.20
2019-03-01T23:32:59.272Z,46.10
2019-03-01T23:35:26.856Z,46.10
2019-03-01T23:37:54.386Z,46.10
2019-03-01T23:40:21.942Z,46.20
2019-03-01T23:42:49.470Z,46.10
2019-03-01T23:45:17.374Z,46.20
2019-03-01T23:47:46.113Z,46.20
2019-03-01T23:50:13.645Z,46.20
2019-03-01T23:52:41.176Z,46.20
2019-03-01T23:55:09.012Z,46.20
2019-03-01T23:57:37.960Z,46.10
